Time;durP1;ratioP1;P1;durP2;ratioP2;P2;SDS_P1;SDS_P2;PMS_P1;PMS_P2;Temp;Humidity;BMP_temperature;BMP_pressure;BME280_temperature;BME280_humidity;BME280_pressure;Samples;Min_cycle;Max_cycle;Signal;HPM_P1;HPM_P2
2022/09/24 00:01:37;;;;;;;47.80;31.57;;;15.30;99.90;;;;;;5080794;28;20235;-80
2022/09/24 00:04:13;;;;;;;50.13;33.13;;;15.30;99.90;;;;;;5080157;28;20235;-79
2022/09/24 00:06:45;;;;;;;48.73;31.43;;;15.30;99.90;;;;;;5061535;28;20210;-79
2022/09/24 00:09:14;;;;;;;47.50;32.47;;;15.30;99.90;;;;;;5064554;28;20281;-78
2022/09/24 00:11:44;;;;;;;51.43;32.37;;;15.40;99.90;;;;;;5062293;28;20941;-78
2022/09/24 00:14:12;;;;;;;51.37;32.37;;;15.30;99.90;;;;;;5080456;28;20737;-78
2022/09/24 00:16:41;;;;;;;51.17;34.33;;;15.30;99.90;;;;;;5080972;28;20580;-78
2022/09/24 00:19:10;;;;;;;53.57;33.03;;;15.30;99.90;;;;;;5064063;28;20231;-77
2022/09/24 00:21:38;;;;;;;54.43;34.87;;;15.30;99.90;;;;;;5080626;28;20204;-77
2022/09/24 00:26:48;;;;;;;53.83;33.90;;;15.30;99.90;;;;;;5078791;28;20642;-77
2022/09/24 00:26:59;;;;;;;53.33;34.73;;;15.30;99.90;;;;;;5079801;28;20207;-77
2022/09/24 00:29:26;;;;;;;51.90;34.30;;;15.30;99.90;;;;;;5062711;28;20254;-78
2022/09/24 00:31:53;;;;;;;54.20;35.03;;;15.60;99.90;;;;;;5084107;28;20266;-79
2022/09/24 00:34:20;;;;;;;57.23;34.87;;;15.30;99.90;;;;;;5068246;28;20223;-78
2022/09/24 00:36:47;;;;;;;56.30;34.93;;;15.30;99.90;;;;;;5083378;28;20243;-78
2022/09/24 00:39:15;;;;;;;55.87;34.97;;;15.30;99.90;;;;;;5080448;28;20228;-77
2022/09/24 00:41:47;;;;;;;58.57;36.33;;;15.30;99.90;;;;;;5079338;28;20586;-77
2022/09/24 00:44:39;;;;;;;55.03;33.67;;;15.30;99.90;;;;;;5062363;28;20200;-78
2022/09/24 00:47:27;;;;;;;49.60;31.27;;;15.40;99.90;;;;;;5082487;28;20243;-76
2022/09/24 00:50:21;;;;;;;51.83;31.47;;;15.30;99.90;;;;;;5080436;28;20334;-79
2022/09/24 00:52:59;;;;;;;45.90;30.10;;;15.30;99.90;;;;;;5085904;28;20532;-78
2022/09/24 00:55:26;;;;;;;50.53;32.10;;;15.30;99.90;;;;;;5079323;28;20210;-80
2022/09/24 00:57:57;;;;;;;47.63;31.80;;;15.20;99.90;;;;;;5082617;28;20207;-80
2022/09/24 01:00:27;;;;;;;48.30;31.10;;;15.70;99.90;;;;;;5081776;28;20603;-78
2022/09/24 01:03:00;;;;;;;47.03;31.37;;;15.20;99.90;;;;;;5083571;28;20672;-79
2022/09/24 01:05:28;;;;;;;50.93;31.67;;;15.20;99.90;;;;;;5079661;28;20214;-77
2022/09/24 01:07:56;;;;;;;48.30;31.43;;;15.20;99.90;;;;;;5064058;28;20630;-78
2022/09/24 01:10:50;;;;;;;49.80;31.60;;;15.20;99.90;;;;;;5085731;28;20192;-79
2022/09/24 01:13:41;;;;;;;47.07;30.43;;;15.20;99.90;;;;;;5065578;28;20549;-79
2022/09/24 01:16:41;;;;;;;45.33;29.23;;;15.10;99.90;;;;;;5079841;28;20231;-78
2022/09/24 01:19:30;;;;;;;50.47;30.37;;;15.10;99.90;;;;;;5037061;28;20193;-78
2022/09/24 01:22:02;;;;;;;46.77;29.50;;;15.10;99.90;;;;;;5081606;28;20211;-79
2022/09/24 01:25:14;;;;;;;43.77;29.60;;;14.80;99.90;;;;;;5084225;28;20287;-79
2022/09/24 01:28:08;;;;;;;46.97;28.43;;;15.10;99.90;;;;;;5084445;28;20290;-79
2022/09/24 01:30:37;;;;;;;44.63;28.90;;;15.10;99.90;;;;;;5081164;28;20226;-78
2022/09/24 01:33:15;;;;;;;49.33;29.40;;;15.10;99.90;;;;;;5082333;28;20699;-78
2022/09/24 01:35:43;;;;;;;45.63;30.33;;;15.10;99.90;;;;;;5083557;28;20609;-78
2022/09/24 01:38:20;;;;;;;45.17;29.33;;;15.10;99.90;;;;;;5089207;28;20624;-78
2022/09/24 01:40:49;;;;;;;46.50;29.80;;;15.10;99.90;;;;;;5089179;28;20821;-78
2022/09/24 01:43:20;;;;;;;45.90;28.20;;;15.00;99.90;;;;;;5082503;28;20200;-78
2022/09/24 01:45:48;;;;;;;44.80;27.47;;;15.00;99.90;;;;;;5083638;28;20204;-78
2022/09/24 01:48:19;;;;;;;43.37;28.57;;;15.10;99.90;;;;;;5085348;28;21469;-77
2022/09/24 01:51:25;;;;;;;44.23;27.70;;;15.00;99.90;;;;;;5088292;28;20195;-78
2022/09/24 01:54:04;;;;;;;45.53;29.37;;;15.00;99.90;;;;;;5052394;28;20225;-79
2022/09/24 01:56:54;;;;;;;45.67;27.93;;;14.90;99.90;;;;;;5067472;28;20212;-78
2022/09/24 01:59:23;;;;;;;42.03;26.43;;;14.90;99.90;;;;;;5066406;28;20289;-76
2022/09/24 02:01:57;;;;;;;44.13;27.60;;;14.90;99.90;;;;;;5076096;28;20219;-77
2022/09/24 02:04:26;;;;;;;44.03;26.50;;;14.90;99.90;;;;;;5078176;28;20209;-77
2022/09/24 02:07:03;;;;;;;43.27;26.27;;;14.90;99.90;;;;;;5062978;28;20223;-78
2022/09/24 02:09:41;;;;;;;45.03;27.90;;;14.90;99.90;;;;;;5071626;28;20379;-77
2022/09/24 02:12:28;;;;;;;44.33;26.70;;;14.90;99.90;;;;;;5077386;28;20200;-75
2022/09/24 02:15:10;;;;;;;44.00;25.80;;;14.90;99.90;;;;;;5077388;28;20728;-76
2022/09/24 02:17:42;;;;;;;42.20;26.27;;;14.90;99.90;;;;;;5062645;28;20295;-76
2022/09/24 02:20:13;;;;;;;40.40;25.20;;;14.90;99.90;;;;;;5079422;28;20251;-76
2022/09/24 02:22:42;;;;;;;43.47;26.80;;;14.90;99.90;;;;;;5043962;28;20701;-77
2022/09/24 02:25:14;;;;;;;42.87;26.33;;;14.90;99.90;;;;;;5063567;28;21041;-75
2022/09/24 02:27:41;;;;;;;45.67;26.27;;;15.10;99.90;;;;;;5062745;28;20358;-76
2022/09/24 02:30:09;;;;;;;46.17;27.17;;;14.90;99.90;;;;;;5078808;28;20286;-75
2022/09/24 02:32:40;;;;;;;47.80;26.63;;;14.90;99.90;;;;;;5058864;28;20213;-74
2022/09/24 02:35:11;;;;;;;47.77;29.23;;;14.90;99.90;;;;;;5076558;28;20251;-74
2022/09/24 02:37:40;;;;;;;48.10;28.07;;;14.90;99.90;;;;;;5079455;28;20299;-75
2022/09/24 02:40:11;;;;;;;45.80;27.13;;;14.90;99.90;;;;;;5079493;28;20319;-73
2022/09/24 02:42:39;;;;;;;46.07;27.60;;;14.90;99.90;;;;;;5079700;28;20236;-77
2022/09/24 02:45:07;;;;;;;51.27;30.33;;;14.90;99.90;;;;;;5079046;28;20302;-75
2022/09/24 02:47:34;;;;;;;52.97;29.37;;;14.90;99.90;;;;;;5077558;28;20745;-76
2022/09/24 02:50:01;;;;;;;49.63;29.30;;;14.90;99.90;;;;;;5066142;28;20837;-75
2022/09/24 02:52:28;;;;;;;55.50;30.03;;;14.90;99.90;;;;;;5063190;28;20211;-75
2022/09/24 02:54:55;;;;;;;57.10;31.77;;;14.90;99.90;;;;;;5081182;28;20204;-75
2022/09/24 02:57:22;;;;;;;61.87;32.50;;;14.90;99.90;;;;;;5084344;28;20968;-76
2022/09/24 02:59:49;;;;;;;59.57;32.53;;;14.80;99.90;;;;;;5067305;28;20216;-74
2022/09/24 03:02:16;;;;;;;57.87;31.13;;;14.80;99.90;;;;;;5080723;28;20255;-75
2022/09/24 03:04:43;;;;;;;59.37;31.83;;;14.90;99.90;;;;;;5081111;28;20210;-78
2022/09/24 03:07:13;;;;;;;55.97;29.67;;;14.80;99.90;;;;;;5084590;28;20290;-76
2022/09/24 03:09:40;;;;;;;62.37;32.87;;;14.80;99.90;;;;;;5071059;28;20207;-76
2022/09/24 03:12:07;;;;;;;67.77;33.03;;;14.80;99.90;;;;;;5079647;28;20308;-76
2022/09/24 03:14:34;;;;;;;59.47;32.10;;;14.80;99.90;;;;;;5062548;28;20211;-74
2022/09/24 03:17:01;;;;;;;64.20;33.87;;;14.80;99.90;;;;;;5080949;28;20295;-75
2022/09/24 03:19:28;;;;;;;65.63;34.37;;;14.80;99.90;;;;;;5080248;28;20669;-73
2022/09/24 03:21:57;;;;;;;61.87;33.10;;;14.80;99.90;;;;;;5078802;28;20259;-75
2022/09/24 03:24:24;;;;;;;65.30;33.57;;;14.80;99.90;;;;;;5055997;28;20228;-74
2022/09/24 03:26:51;;;;;;;68.03;36.27;;;14.80;99.90;;;;;;5070706;28;20236;-74
2022/09/24 03:30:58;;;;;;;66.77;36.07;;;14.70;99.90;;;;;;5066756;28;20263;-74
2022/09/24 03:32:08;;;;;;;69.83;34.73;;;14.70;99.90;;;;;;5082203;28;20234;-74
2022/09/24 03:34:38;;;;;;;70.70;36.20;;;14.70;99.90;;;;;;5081504;28;20204;-77
2022/09/24 03:37:05;;;;;;;71.97;35.50;;;14.70;99.90;;;;;;5079636;28;20195;-74
2022/09/24 03:39:32;;;;;;;71.70;35.50;;;14.50;99.90;;;;;;5078980;28;20193;-75
2022/09/24 03:41:59;;;;;;;74.13;38.17;;;14.70;99.90;;;;;;5080160;28;20224;-74
2022/09/24 03:44:27;;;;;;;67.83;35.30;;;14.90;99.90;;;;;;5076204;28;20223;-74
2022/09/24 03:46:56;;;;;;;77.07;37.87;;;14.60;99.90;;;;;;5069978;28;20219;-75
2022/09/24 03:49:24;;;;;;;77.30;38.63;;;14.60;99.90;;;;;;5075445;28;20667;-75
2022/09/24 03:51:51;;;;;;;76.97;38.23;;;14.60;99.90;;;;;;5083117;28;20684;-75
2022/09/24 03:54:18;;;;;;;80.50;39.43;;;14.80;99.90;;;;;;5061397;28;20661;-75
2022/09/24 03:56:45;;;;;;;80.50;38.97;;;14.60;99.90;;;;;;5080348;28;20208;-75
2022/09/24 03:59:12;;;;;;;85.03;40.33;;;14.60;99.90;;;;;;5065293;28;20204;-75
2022/09/24 04:01:39;;;;;;;77.17;39.30;;;14.60;99.90;;;;;;5079739;28;20827;-76
2022/09/24 04:04:06;;;;;;;85.13;39.00;;;14.60;99.90;;;;;;5075202;28;20212;-76
2022/09/24 04:06:33;;;;;;;84.23;40.13;;;14.60;99.90;;;;;;5062012;28;20204;-75
2022/09/24 04:09:03;;;;;;;81.33;40.73;;;14.50;99.90;;;;;;5084076;28;20216;-75
2022/09/24 04:11:29;;;;;;;77.93;39.17;;;14.50;99.90;;;;;;5069841;28;20302;-76
2022/09/24 04:13:57;;;;;;;69.20;36.40;;;14.50;99.90;;;;;;5075806;28;20242;-75
2022/09/24 04:16:24;;;;;;;70.90;36.87;;;14.50;99.90;;;;;;5061888;28;20219;-75
2022/09/24 04:18:54;;;;;;;73.77;38.03;;;14.50;99.90;;;;;;5077824;28;20201;-76
2022/09/24 04:21:21;;;;;;;70.93;36.40;;;14.50;99.90;;;;;;5062167;28;20228;-74
2022/09/24 04:23:47;;;;;;;69.73;35.67;;;14.50;99.90;;;;;;5079614;28;20266;-76
2022/09/24 04:26:16;;;;;;;65.87;35.83;;;14.50;99.90;;;;;;5074830;28;20379;-76
2022/09/24 04:28:43;;;;;;;65.30;35.83;;;14.50;99.90;;;;;;5075140;28;20222;-77
2022/09/24 04:31:10;;;;;;;64.83;34.60;;;14.40;99.90;;;;;;5076394;28;20236;-76
2022/09/24 04:33:39;;;;;;;65.13;33.47;;;14.50;99.90;;;;;;5079731;28;20196;-78
2022/09/24 04:36:06;;;;;;;66.90;34.60;;;14.40;99.90;;;;;;5074271;28;20294;-76
2022/09/24 04:38:33;;;;;;;60.83;33.93;;;14.40;99.90;;;;;;5073879;28;20196;-76
2022/09/24 04:41:05;;;;;;;62.77;33.63;;;14.40;99.90;;;;;;5077511;28;20314;-77
2022/09/24 04:43:32;;;;;;;57.47;32.40;;;14.30;99.90;;;;;;5073646;28;20644;-76
2022/09/24 04:46:00;;;;;;;59.87;33.50;;;14.30;99.90;;;;;;5077609;28;20637;-77
2022/09/24 04:48:28;;;;;;;64.27;31.30;;;14.30;99.90;;;;;;5074310;28;20239;-75
2022/09/24 04:50:55;;;;;;;60.20;32.97;;;14.30;99.90;;;;;;5059037;28;20203;-77
2022/09/24 04:53:23;;;;;;;59.40;31.67;;;14.30;99.90;;;;;;5060131;28;20197;-76
2022/09/24 04:55:50;;;;;;;55.23;30.97;;;14.10;99.90;;;;;;5065001;28;20199;-75
2022/09/24 04:58:18;;;;;;;56.43;30.83;;;14.30;99.90;;;;;;5060033;28;20266;-78
2022/09/24 05:00:46;;;;;;;55.27;30.10;;;14.30;99.90;;;;;;5058874;28;20823;-77
2022/09/24 05:03:13;;;;;;;58.93;31.07;;;14.40;99.90;;;;;;5078576;28;20269;-76
2022/09/24 05:05:40;;;;;;;54.70;29.93;;;14.30;99.90;;;;;;5067329;28;20192;-76
2022/09/24 05:08:07;;;;;;;52.20;29.30;;;14.30;99.90;;;;;;5084972;28;20263;-76
2022/09/24 05:10:34;;;;;;;51.20;29.23;;;14.30;99.90;;;;;;5086827;28;20195;-76
2022/09/24 05:13:01;;;;;;;50.80;28.60;;;14.40;99.90;;;;;;5078685;28;20196;-77
2022/09/24 05:15:28;;;;;;;52.27;27.97;;;14.30;99.90;;;;;;5083047;28;20624;-75
2022/09/24 05:17:55;;;;;;;52.70;29.10;;;14.30;99.90;;;;;;5087585;28;20238;-75
2022/09/24 05:20:22;;;;;;;48.53;26.97;;;14.30;99.90;;;;;;5077142;28;20211;-76
2022/09/24 05:22:49;;;;;;;54.67;28.83;;;14.30;99.90;;;;;;5064694;28;20532;-77
2022/09/24 05:25:18;;;;;;;47.67;26.83;;;14.50;99.90;;;;;;5081366;28;20642;-75
2022/09/24 05:27:47;;;;;;;50.47;28.53;;;14.30;99.90;;;;;;5084410;28;20208;-76
2022/09/24 05:30:18;;;;;;;50.77;26.10;;;13.90;99.90;;;;;;5063361;28;20564;-77
2022/09/24 05:32:51;;;;;;;47.37;26.03;;;14.20;99.90;;;;;;5066999;28;20219;-77
2022/09/24 05:35:20;;;;;;;47.17;27.30;;;14.50;99.90;;;;;;5073543;28;20207;-76
2022/09/24 05:37:52;;;;;;;47.43;26.57;;;14.40;99.90;;;;;;5062745;28;20231;-76
2022/09/24 05:43:05;;;;;;;48.87;26.87;;;14.40;99.90;;;;;;5078006;28;20230;-76
2022/09/24 05:45:32;;;;;;;42.37;26.07;;;14.40;99.90;;;;;;5082524;28;20205;-77
2022/09/24 05:47:59;;;;;;;45.03;24.17;;;14.40;99.90;;;;;;5071993;28;20750;-76
2022/09/24 05:50:26;;;;;;;51.83;27.60;;;14.40;99.90;;;;;;5070564;28;20230;-75
2022/09/24 05:52:53;;;;;;;46.60;24.27;;;14.40;99.90;;;;;;5068291;28;20192;-75
2022/09/24 05:55:20;;;;;;;45.53;25.43;;;14.50;99.90;;;;;;5073600;28;20518;-76
2022/09/24 05:57:48;;;;;;;41.07;24.20;;;14.50;99.90;;;;;;5075609;28;20201;-76
2022/09/24 06:00:15;;;;;;;42.17;24.30;;;14.50;99.90;;;;;;5078021;28;20341;-75
2022/09/24 06:02:42;;;;;;;45.43;26.73;;;14.50;99.90;;;;;;5081916;28;20567;-76
2022/09/24 06:05:09;;;;;;;45.53;25.60;;;14.50;99.90;;;;;;5084236;28;20229;-77
2022/09/24 06:07:36;;;;;;;45.10;26.23;;;14.50;99.90;;;;;;5082160;28;20236;-77
2022/09/24 06:10:08;;;;;;;45.70;26.00;;;14.50;99.90;;;;;;5084417;28;20243;-76
2022/09/24 06:12:34;;;;;;;47.03;25.73;;;14.50;99.90;;;;;;5086553;28;20196;-76
2022/09/24 06:15:02;;;;;;;48.20;25.07;;;14.50;99.90;;;;;;5086142;28;20207;-75
2022/09/24 06:17:30;;;;;;;49.77;26.00;;;14.50;99.90;;;;;;5062642;28;20299;-76
2022/09/24 06:19:59;;;;;;;45.10;25.60;;;14.50;99.90;;;;;;5068484;28;20633;-76
2022/09/24 06:22:26;;;;;;;49.67;26.93;;;14.50;99.90;;;;;;5081422;28;20220;-75
2022/09/24 06:24:55;;;;;;;45.20;24.90;;;14.50;99.90;;;;;;5082108;28;20210;-75
2022/09/24 06:27:22;;;;;;;46.00;25.83;;;14.60;99.90;;;;;;5081720;28;20315;-76
2022/09/24 06:29:49;;;;;;;49.83;26.47;;;14.60;99.90;;;;;;5085180;28;20287;-76
2022/09/24 06:32:16;;;;;;;49.67;26.60;;;14.60;99.90;;;;;;5063348;28;20570;-75
2022/09/24 06:34:43;;;;;;;45.07;24.50;;;14.60;99.90;;;;;;5074170;28;20204;-74
2022/09/24 06:37:09;;;;;;;46.03;25.50;;;14.60;99.90;;;;;;5068561;28;20210;-75
2022/09/24 06:39:36;;;;;;;48.77;26.43;;;14.70;99.90;;;;;;5062933;28;20709;-75
2022/09/24 06:42:03;;;;;;;49.57;25.90;;;14.60;99.90;;;;;;5081792;28;20306;-74
2022/09/24 06:44:31;;;;;;;43.80;24.63;;;14.60;99.90;;;;;;5068377;28;20258;-76
2022/09/24 06:46:58;;;;;;;48.47;26.93;;;14.60;99.90;;;;;;5077839;28;20310;-75
2022/09/24 06:49:24;;;;;;;43.70;24.53;;;14.60;99.90;;;;;;5061936;28;20832;-75
2022/09/24 06:51:58;;;;;;;49.27;25.87;;;14.40;99.90;;;;;;5079302;28;20203;-76
2022/09/24 06:54:25;;;;;;;46.30;26.43;;;14.60;99.90;;;;;;5078856;28;20214;-76
2022/09/24 06:56:52;;;;;;;44.47;24.77;;;14.70;99.90;;;;;;5075568;28;20212;-77
2022/09/24 06:59:19;;;;;;;49.47;26.63;;;14.70;99.90;;;;;;5080519;28;20249;-77
2022/09/24 07:01:46;;;;;;;44.83;25.93;;;14.70;99.90;;;;;;5077496;28;20606;-76
2022/09/24 07:04:13;;;;;;;44.23;25.53;;;14.70;99.90;;;;;;5075783;28;20188;-75
2022/09/24 07:09:25;;;;;;;47.63;26.23;;;14.80;99.90;;;;;;5075486;28;20661;-76
2022/09/24 07:11:53;;;;;;;46.10;25.07;;;14.80;99.90;;;;;;5069286;28;20257;-76
2022/09/24 07:14:20;;;;;;;44.70;25.97;;;14.80;99.90;;;;;;5079152;28;20204;-76
2022/09/24 07:16:47;;;;;;;42.83;25.93;;;14.80;99.90;;;;;;5077017;28;20220;-76
2022/09/24 07:19:14;;;;;;;42.53;24.93;;;14.80;99.90;;;;;;5076592;28;20215;-76
2022/09/24 07:21:41;;;;;;;45.70;25.60;;;14.80;99.90;;;;;;5079797;28;20263;-75
2022/09/24 07:24:08;;;;;;;46.40;26.33;;;14.80;99.90;;;;;;5077155;28;20656;-76
2022/09/24 07:26:34;;;;;;;49.47;27.47;;;14.80;99.90;;;;;;5076972;28;20695;-77
2022/09/24 07:29:03;;;;;;;45.53;26.23;;;14.80;99.90;;;;;;5076634;28;20422;-75
2022/09/24 07:31:30;;;;;;;53.97;27.53;;;14.90;99.90;;;;;;5060107;28;20223;-77
2022/09/24 07:33:57;;;;;;;45.30;27.10;;;14.80;99.90;;;;;;5079968;28;20215;-78
2022/09/24 07:36:24;;;;;;;47.27;27.57;;;14.90;99.90;;;;;;5068635;28;20298;-76
2022/09/24 07:38:51;;;;;;;48.67;26.40;;;14.90;99.90;;;;;;5081805;28;20796;-77
2022/09/24 07:41:19;;;;;;;48.77;27.70;;;14.90;99.90;;;;;;5083173;28;20223;-77
2022/09/24 07:43:46;;;;;;;45.47;27.10;;;14.90;99.90;;;;;;5078549;28;20574;-76
2022/09/24 07:46:13;;;;;;;45.83;26.17;;;15.00;99.90;;;;;;5077235;28;20718;-77
2022/09/24 07:48:40;;;;;;;49.13;27.13;;;15.00;99.90;;;;;;5080735;28;20208;-78
2022/09/24 07:51:10;;;;;;;49.23;27.67;;;15.00;99.90;;;;;;5081033;28;20204;-76
2022/09/24 07:53:37;;;;;;;48.67;27.60;;;15.00;99.90;;;;;;5078634;28;20201;-77
2022/09/24 07:56:07;;;;;;;44.63;25.83;;;14.00;99.90;;;;;;5068170;28;20218;-76
2022/09/24 07:58:34;;;;;;;51.67;28.40;;;14.80;99.90;;;;;;5075525;28;20254;-75
2022/09/24 08:01:01;;;;;;;49.23;27.87;;;15.10;99.90;;;;;;5075519;28;20227;-76
2022/09/24 08:03:29;;;;;;;49.53;28.73;;;15.10;99.90;;;;;;5076174;28;20750;-76
2022/09/24 08:05:57;;;;;;;52.00;28.40;;;15.20;99.90;;;;;;5068681;28;20249;-78
2022/09/24 08:08:24;;;;;;;51.17;28.03;;;15.10;99.90;;;;;;5063383;28;20579;-76
2022/09/24 08:10:51;;;;;;;50.03;28.07;;;15.20;99.90;;;;;;5074302;28;20208;-77
2022/09/24 08:13:18;;;;;;;52.40;28.33;;;15.10;99.90;;;;;;5074721;28;20227;-76
2022/09/24 08:16:02;;;;;;;52.97;30.10;;;15.10;99.90;;;;;;5057954;28;20210;-76
2022/09/24 08:18:31;;;;;;;52.30;29.73;;;15.20;99.90;;;;;;5076481;28;20212;-77
2022/09/24 08:21:03;;;;;;;53.87;30.13;;;15.20;99.90;;;;;;5075670;28;20197;-76
2022/09/24 08:23:31;;;;;;;53.47;30.27;;;15.20;99.90;;;;;;5077898;28;20649;-77
2022/09/24 08:25:59;;;;;;;52.70;29.10;;;15.20;99.90;;;;;;5055455;28;20290;-76
2022/09/24 08:28:26;;;;;;;50.40;28.83;;;15.30;99.90;;;;;;5083096;28;20219;-75
2022/09/24 08:30:59;;;;;;;49.60;27.17;;;15.30;99.90;;;;;;5078117;28;20360;-75
2022/09/24 08:33:31;;;;;;;51.77;28.57;;;15.30;99.90;;;;;;5076772;28;20994;-76
2022/09/24 08:35:59;;;;;;;52.80;28.47;;;15.30;99.90;;;;;;5073970;28;20261;-75
2022/09/24 08:38:26;;;;;;;52.63;29.07;;;15.30;99.90;;;;;;5076348;28;20224;-75
2022/09/24 08:41:31;;;;;;;51.00;29.90;;;15.30;99.90;;;;;;5059670;28;20303;-75
2022/09/24 08:44:09;;;;;;;50.30;28.07;;;15.30;99.90;;;;;;5027570;28;20283;-76
2022/09/24 08:47:24;;;;;;;49.10;28.53;;;15.30;99.90;;;;;;5076573;28;20216;-75
2022/09/24 08:50:08;;;;;;;51.23;29.47;;;15.30;99.90;;;;;;5075974;28;20251;-75
2022/09/24 08:52:41;;;;;;;50.60;28.90;;;15.20;99.90;;;;;;5076980;28;20230;-76
2022/09/24 08:55:24;;;;;;;52.53;29.43;;;15.20;99.90;;;;;;5076569;28;20238;-75
2022/09/24 08:58:18;;;;;;;53.83;28.93;;;15.30;99.90;;;;;;5074988;28;20447;-75
2022/09/24 09:01:06;;;;;;;49.63;29.37;;;15.30;99.90;;;;;;5076869;28;20235;-75
2022/09/24 09:03:52;;;;;;;51.07;29.83;;;15.30;99.90;;;;;;5079528;28;20830;-75
2022/09/24 09:06:42;;;;;;;48.87;28.60;;;15.30;99.90;;;;;;5075383;28;20665;-74
2022/09/24 09:09:22;;;;;;;51.80;29.60;;;15.30;99.90;;;;;;5076421;28;20204;-74
2022/09/24 09:11:56;;;;;;;49.30;28.57;;;15.30;99.90;;;;;;5075518;28;20307;-75
2022/09/24 09:14:44;;;;;;;45.20;26.83;;;15.30;99.90;;;;;;5077420;28;20204;-74
2022/09/24 09:17:37;;;;;;;46.40;26.27;;;15.40;99.90;;;;;;5076100;28;20531;-74
2022/09/24 09:20:10;;;;;;;45.00;26.20;;;15.40;99.90;;;;;;5073531;28;20211;-75
2022/09/24 09:22:43;;;;;;;43.33;24.40;;;15.40;99.90;;;;;;5078403;28;20359;-75
2022/09/24 09:25:24;;;;;;;42.87;25.93;;;15.40;99.90;;;;;;5072791;28;20623;-75
2022/09/24 09:27:57;;;;;;;44.47;25.63;;;15.30;99.90;;;;;;5076471;28;20223;-76
2022/09/24 09:30:24;;;;;;;43.63;24.47;;;15.30;99.90;;;;;;5065629;28;20243;-75
2022/09/24 09:33:15;;;;;;;38.43;23.40;;;15.40;99.90;;;;;;5066498;28;20221;-75
2022/09/24 09:36:12;;;;;;;41.40;26.07;;;15.30;99.90;;;;;;5072968;28;20196;-75
2022/09/24 09:38:45;;;;;;;41.73;25.70;;;15.30;99.90;;;;;;5072083;28;20231;-76
2022/09/24 09:41:26;;;;;;;42.67;25.87;;;15.20;99.90;;;;;;5081761;28;20650;-74
2022/09/24 09:44:00;;;;;;;43.73;26.10;;;15.20;99.90;;;;;;5077186;28;20219;-74
2022/09/24 09:46:33;;;;;;;46.77;27.47;;;15.20;99.90;;;;;;5074387;28;20266;-74
2022/09/24 09:49:06;;;;;;;47.93;27.70;;;15.20;99.90;;;;;;5056309;28;20224;-75
2022/09/24 09:51:39;;;;;;;48.47;27.30;;;15.20;99.90;;;;;;5078654;28;20196;-73
2022/09/24 09:54:07;;;;;;;44.23;27.37;;;15.10;99.90;;;;;;5077719;28;20189;-74
2022/09/24 09:56:47;;;;;;;42.97;25.93;;;15.10;99.90;;;;;;5077428;28;20223;-75
2022/09/24 09:59:20;;;;;;;42.00;25.27;;;15.20;99.90;;;;;;5080569;28;20296;-75
2022/09/24 10:02:00;;;;;;;47.03;26.90;;;15.20;99.90;;;;;;5084048;28;20223;-76
2022/09/24 10:04:34;;;;;;;47.27;27.20;;;15.40;99.90;;;;;;5075016;28;20211;-75
2022/09/24 10:07:09;;;;;;;45.17;24.90;;;15.20;99.90;;;;;;5060401;28;20202;-73
2022/09/24 10:09:38;;;;;;;47.57;26.37;;;15.20;99.90;;;;;;5076855;28;20791;-75
2022/09/24 10:12:08;;;;;;;49.97;26.53;;;15.20;99.90;;;;;;5079523;28;20204;-75
2022/09/24 10:14:35;;;;;;;44.77;25.73;;;15.20;99.90;;;;;;5076764;28;20208;-74
2022/09/24 10:17:04;;;;;;;50.13;27.17;;;15.20;99.90;;;;;;5076449;28;20240;-75
2022/09/24 10:19:41;;;;;;;49.60;27.77;;;15.30;99.90;;;;;;5080409;28;20302;-75
2022/09/24 10:22:22;;;;;;;52.57;27.27;;;15.30;99.90;;;;;;5077257;28;20665;-75
2022/09/24 10:24:52;;;;;;;52.20;26.60;;;15.30;99.90;;;;;;5085078;28;20302;-75
2022/09/24 10:27:31;;;;;;;48.17;26.20;;;15.20;99.90;;;;;;5081373;28;20551;-76
2022/09/24 10:32:56;;;;;;;50.20;26.27;;;15.20;99.90;;;;;;5080142;28;20631;-74
2022/09/24 10:35:34;;;;;;;43.13;24.97;;;15.30;99.90;;;;;;5074434;28;20241;-75
2022/09/24 10:38:14;;;;;;;44.97;24.57;;;15.20;99.90;;;;;;5065399;28;20192;-74
2022/09/24 10:40:41;;;;;;;44.67;24.83;;;15.20;99.90;;;;;;5068459;28;20649;-75
2022/09/24 10:43:21;;;;;;;46.03;24.67;;;15.30;99.90;;;;;;5077358;28;20239;-76
2022/09/24 10:45:57;;;;;;;43.87;24.47;;;15.30;99.90;;;;;;5077042;28;20229;-74
2022/09/24 10:48:49;;;;;;;41.70;23.77;;;15.30;99.90;;;;;;5076141;28;20704;-73
2022/09/24 10:51:42;;;;;;;38.43;22.47;;;15.30;99.90;;;;;;5063732;28;20303;-72
2022/09/24 10:54:31;;;;;;;35.07;20.90;;;15.30;99.90;;;;;;5066911;28;20286;-75
2022/09/24 10:57:16;;;;;;;38.53;22.07;;;15.20;99.90;;;;;;5067932;28;20630;-75
2022/09/24 11:00:10;;;;;;;36.90;19.47;;;15.20;99.90;;;;;;5078133;28;20238;-75
2022/09/24 11:03:05;;;;;;;34.80;20.33;;;15.20;99.90;;;;;;5076577;28;20319;-76
2022/09/24 11:05:51;;;;;;;35.10;19.87;;;15.20;99.90;;;;;;5077184;28;20208;-76
2022/09/24 11:08:51;;;;;;;34.60;19.93;;;15.10;99.90;;;;;;5077981;28;20707;-76
2022/09/24 11:11:38;;;;;;;36.53;19.93;;;15.20;99.90;;;;;;5077795;28;20200;-76
2022/09/24 11:14:35;;;;;;;36.37;20.23;;;15.20;99.90;;;;;;5077420;28;20691;-76
2022/09/24 11:17:33;;;;;;;34.60;19.80;;;15.20;99.90;;;;;;5061762;28;20639;-76
2022/09/24 11:20:21;;;;;;;33.77;20.40;;;15.30;99.90;;;;;;5045629;28;20572;-75
2022/09/24 11:23:01;;;;;;;33.37;19.90;;;15.30;99.90;;;;;;5059373;28;20777;-76
2022/09/24 11:26:01;;;;;;;35.93;19.77;;;15.30;99.90;;;;;;5080879;28;20719;-74
2022/09/24 11:28:49;;;;;;;32.97;18.17;;;15.30;99.90;;;;;;5077504;28;20208;-75
2022/09/24 11:31:37;;;;;;;36.57;20.40;;;15.40;99.90;;;;;;5077002;28;20242;-75
2022/09/24 11:34:26;;;;;;;32.93;19.23;;;15.40;99.90;;;;;;5075273;28;20303;-75
2022/09/24 11:37:11;;;;;;;30.80;17.93;;;15.40;99.90;;;;;;5068959;28;20208;-75
2022/09/24 11:39:45;;;;;;;37.53;20.60;;;15.40;99.90;;;;;;5075521;28;20300;-75
2022/09/24 11:42:45;;;;;;;33.70;21.30;;;15.50;99.90;;;;;;5075123;28;20223;-75
2022/09/24 11:45:46;;;;;;;35.50;22.17;;;15.20;99.90;;;;;;5079158;28;20208;-74
2022/09/24 11:48:38;;;;;;;30.67;18.97;;;15.50;99.90;;;;;;5074973;28;20216;-74
2022/09/24 11:51:17;;;;;;;38.37;21.50;;;15.40;99.90;;;;;;5079488;28;20212;-75
2022/09/24 11:54:01;;;;;;;38.90;23.57;;;15.40;99.90;;;;;;5075977;28;20286;-75
2022/09/24 11:56:35;;;;;;;36.97;21.13;;;15.60;99.90;;;;;;5061540;28;20199;-74
2022/09/24 11:59:21;;;;;;;39.57;22.37;;;15.50;99.90;;;;;;5062393;28;20212;-74
2022/09/24 12:02:00;;;;;;;37.10;21.00;;;15.40;99.90;;;;;;5078181;28;20244;-75
2022/09/24 12:04:39;;;;;;;38.33;20.47;;;15.50;99.90;;;;;;5078206;28;20216;-74
2022/09/24 12:07:13;;;;;;;43.50;22.90;;;15.50;99.90;;;;;;5058574;28;20240;-75
2022/09/24 12:09:47;;;;;;;37.43;20.57;;;15.50;99.90;;;;;;5079030;28;20615;-74
2022/09/24 12:12:23;;;;;;;34.27;18.07;;;15.50;99.90;;;;;;5060560;28;20247;-75
2022/09/24 12:15:00;;;;;;;33.90;19.03;;;15.50;99.90;;;;;;5059082;28;20768;-74
2022/09/24 12:17:36;;;;;;;33.00;18.53;;;15.60;99.90;;;;;;5058366;28;20293;-74
2022/09/24 12:20:31;;;;;;;28.67;16.53;;;15.40;99.90;;;;;;5076632;28;20204;-74
2022/09/24 12:23:26;;;;;;;24.17;13.30;;;15.50;99.90;;;;;;5073937;28;20250;-75
2022/09/24 12:25:57;;;;;;;22.53;12.50;;;15.60;99.90;;;;;;5072399;28;20258;-75
2022/09/24 12:34:44;;;;;;;16.03;8.47;;;15.30;99.90;;;;;;5055056;28;20208;-74
2022/09/24 12:37:15;;;;;;;17.53;9.03;;;15.20;99.90;;;;;;5080031;28;20283;-75
2022/09/24 12:40:17;;;;;;;14.37;8.07;;;15.10;99.90;;;;;;5058936;28;20684;-74
2022/09/24 12:42:48;;;;;;;13.27;7.10;;;15.20;99.90;;;;;;5078958;28;20227;-72
2022/09/24 12:45:20;;;;;;;19.83;8.47;;;15.20;99.90;;;;;;5077152;28;20238;-74
2022/09/24 12:47:58;;;;;;;21.23;8.93;;;15.20;99.90;;;;;;5075781;28;20858;-72
2022/09/24 12:50:28;;;;;;;20.17;9.13;;;15.20;99.90;;;;;;5078474;28;20243;-72
2022/09/24 12:52:55;;;;;;;18.93;9.73;;;15.20;99.90;;;;;;5078526;28;20602;-72
2022/09/24 12:55:26;;;;;;;19.57;8.97;;;15.20;99.90;;;;;;5078247;28;20295;-73
2022/09/24 12:58:04;;;;;;;22.40;9.83;;;15.30;99.90;;;;;;5076211;28;20769;-72
2022/09/24 13:00:36;;;;;;;17.13;8.63;;;15.30;99.90;;;;;;5058186;28;20249;-72
2022/09/24 13:03:05;;;;;;;17.00;8.07;;;15.30;99.90;;;;;;5060735;28;20700;-73
2022/09/24 13:05:34;;;;;;;16.67;7.67;;;15.40;99.90;;;;;;5075620;28;20224;-73
2022/09/24 13:08:07;;;;;;;13.33;8.07;;;15.40;99.90;;;;;;5076905;28;20363;-72
2022/09/24 13:10:35;;;;;;;15.87;8.77;;;15.50;99.90;;;;;;5074306;28;20290;-72
2022/09/24 13:13:14;;;;;;;17.27;8.43;;;15.50;99.90;;;;;;5077634;28;20220;-72
2022/09/24 13:15:42;;;;;;;15.93;8.10;;;15.60;99.90;;;;;;5077200;28;20323;-72